Time;durP1;ratioP1;P1;durP2;ratioP2;P2;SDS_P1;SDS_P2;PMS_P1;PMS_P2;Temp;Humidity;BMP_temperature;BMP_pressure;BME280_temperature;BME280_humidity;BME280_pressure;Samples;Min_cycle;Max_cycle;Signal;HPM_P1;HPM_P2
2022/05/01 00:01:07;;;;;;;5.30;3.87;;;9.80;99.90;;;;;;5265253;28;20432;-48
2022/05/01 00:03:39;;;;;;;4.60;4.17;;;9.80;99.90;;;;;;5248381;28;20197;-49
2022/05/01 00:06:11;;;;;;;4.43;4.13;;;9.70;99.90;;;;;;5269284;28;20205;-49
2022/05/01 00:08:42;;;;;;;10.43;3.90;;;9.60;99.90;;;;;;5265943;28;20441;-49
2022/05/01 00:11:13;;;;;;;8.77;4.33;;;9.50;99.90;;;;;;5265914;28;21569;-49
2022/05/01 00:13:45;;;;;;;7.00;4.63;;;9.50;99.90;;;;;;5266969;28;20520;-49
2022/05/01 00:16:16;;;;;;;5.20;4.23;;;9.60;99.90;;;;;;5262365;28;20206;-50
2022/05/01 00:18:46;;;;;;;6.07;4.00;;;9.50;99.90;;;;;;5266119;28;21455;-49
2022/05/01 00:21:17;;;;;;;3.77;3.37;;;9.40;99.90;;;;;;5273821;28;20185;-49
2022/05/01 00:23:47;;;;;;;5.80;3.97;;;9.40;99.90;;;;;;5265187;27;20795;-49
2022/05/01 00:26:18;;;;;;;5.57;4.60;;;9.30;99.90;;;;;;5265160;28;20194;-48
2022/05/01 00:28:48;;;;;;;6.60;4.20;;;9.30;99.90;;;;;;5256392;28;20190;-48
2022/05/01 00:31:19;;;;;;;4.43;3.67;;;9.20;99.90;;;;;;5259059;28;20175;-49
2022/05/01 00:36:40;;;;;;;12.00;4.63;;;9.20;99.90;;;;;;5266792;28;20192;-50
2022/05/01 00:39:10;;;;;;;4.90;3.50;;;9.20;99.90;;;;;;5268485;28;20439;-49
2022/05/01 00:41:43;;;;;;;4.27;3.90;;;9.20;99.90;;;;;;5264223;28;20950;-48
2022/05/01 00:44:15;;;;;;;11.17;4.53;;;9.20;99.90;;;;;;5265572;28;20569;-48
2022/05/01 00:46:48;;;;;;;2.97;2.77;;;9.10;99.90;;;;;;5264191;28;20435;-48
2022/05/01 00:49:25;;;;;;;4.20;3.53;;;9.10;99.90;;;;;;5266397;28;20442;-50
2022/05/01 00:51:58;;;;;;;7.83;3.73;;;9.00;99.90;;;;;;5260070;28;20468;-48
2022/05/01 00:54:31;;;;;;;5.70;3.20;;;9.00;99.90;;;;;;5267913;28;20561;-49
2022/05/01 00:57:03;;;;;;;4.80;3.57;;;9.00;99.90;;;;;;5267356;28;20576;-51
2022/05/01 00:59:36;;;;;;;7.90;3.50;;;8.90;99.90;;;;;;5265661;28;20970;-50
2022/05/01 01:02:07;;;;;;;4.33;3.93;;;8.80;99.90;;;;;;5262929;28;20477;-49
2022/05/01 01:04:37;;;;;;;5.97;3.90;;;8.80;99.90;;;;;;5262560;28;20460;-49
2022/05/01 01:07:08;;;;;;;4.57;4.20;;;8.80;99.90;;;;;;5264106;28;20773;-49
2022/05/01 01:09:39;;;;;;;4.33;3.67;;;8.70;99.90;;;;;;5264948;28;20182;-50
2022/05/01 01:15:13;;;;;;;5.43;3.60;;;8.70;99.90;;;;;;5265233;28;20981;-48
2022/05/01 01:17:46;;;;;;;3.83;3.53;;;8.70;99.90;;;;;;5267020;28;20432;-50
2022/05/01 01:20:18;;;;;;;4.47;4.07;;;8.70;99.90;;;;;;5267800;28;20446;-49
2022/05/01 01:22:51;;;;;;;6.80;3.80;;;8.70;99.90;;;;;;5262571;28;20463;-49
2022/05/01 01:25:27;;;;;;;5.60;3.97;;;8.60;99.90;;;;;;5259745;28;20468;-50
2022/05/01 01:28:03;;;;;;;5.13;4.03;;;8.50;99.90;;;;;;5257717;28;22509;-49
2022/05/01 01:33:25;;;;;;;5.13;4.03;;;8.60;99.90;;;;;;5262780;28;20435;-49
2022/05/01 01:35:58;;;;;;;6.90;4.40;;;8.50;99.90;;;;;;5246622;28;21016;-49
2022/05/01 01:38:30;;;;;;;4.80;3.70;;;8.50;99.90;;;;;;5261992;28;20508;-49
2022/05/01 01:41:08;;;;;;;6.57;4.10;;;8.50;99.90;;;;;;5262702;28;20432;-49
2022/05/01 01:43:42;;;;;;;7.33;4.23;;;8.50;99.90;;;;;;5257570;28;20500;-49
2022/05/01 01:46:12;;;;;;;5.53;4.17;;;8.50;99.90;;;;;;5260970;28;20889;-50
2022/05/01 01:48:45;;;;;;;3.80;3.20;;;8.40;99.90;;;;;;5263032;28;20530;-50
2022/05/01 01:51:15;;;;;;;9.63;4.80;;;8.40;99.90;;;;;;5263296;28;20181;-49
2022/05/01 01:53:46;;;;;;;4.23;3.87;;;8.40;99.90;;;;;;5262188;28;20442;-49
2022/05/01 01:56:16;;;;;;;8.00;3.43;;;8.40;99.90;;;;;;5263352;28;20201;-49
2022/05/01 01:58:47;;;;;;;3.70;3.43;;;8.40;99.90;;;;;;5265896;28;20239;-50
2022/05/01 02:01:17;;;;;;;3.80;3.27;;;8.30;99.90;;;;;;5260689;28;20260;-48
2022/05/01 02:03:48;;;;;;;3.70;3.33;;;8.30;99.90;;;;;;5266247;28;20201;-49
2022/05/01 02:06:19;;;;;;;3.40;3.13;;;8.20;99.90;;;;;;5255527;28;20209;-49
2022/05/01 02:08:49;;;;;;;6.33;2.73;;;8.20;99.90;;;;;;5261911;28;20268;-49
2022/05/01 02:11:20;;;;;;;4.33;4.00;;;8.20;99.90;;;;;;5264071;28;20246;-49
2022/05/01 02:13:50;;;;;;;3.37;3.07;;;8.20;99.90;;;;;;5262446;28;20223;-49
2022/05/01 02:16:21;;;;;;;6.80;3.40;;;8.20;99.90;;;;;;5259566;28;23119;-49
2022/05/01 02:18:51;;;;;;;7.70;4.20;;;8.10;99.90;;;;;;5262909;28;20281;-49
2022/05/01 02:21:34;;;;;;;4.30;3.90;;;8.10;99.90;;;;;;5263193;28;20177;-50
2022/05/01 02:24:07;;;;;;;12.60;4.13;;;8.10;99.90;;;;;;5257149;28;20288;-49
2022/05/01 02:26:38;;;;;;;6.70;3.80;;;8.10;99.90;;;;;;5245972;28;20804;-48
2022/05/01 02:29:10;;;;;;;9.47;4.60;;;8.10;99.90;;;;;;5258347;28;20434;-49
2022/05/01 02:31:42;;;;;;;6.13;3.70;;;8.10;99.90;;;;;;5263838;28;20534;-46
2022/05/01 02:34:13;;;;;;;5.97;3.80;;;8.10;99.90;;;;;;5261964;28;20455;-57
2022/05/01 02:36:43;;;;;;;4.73;3.83;;;8.10;99.90;;;;;;5263904;28;20829;-46
2022/05/01 02:39:14;;;;;;;6.77;3.63;;;8.10;99.90;;;;;;5262722;28;20621;-46
2022/05/01 02:41:44;;;;;;;4.80;3.77;;;8.10;99.90;;;;;;5263656;28;20186;-50
2022/05/01 02:44:16;;;;;;;4.00;3.60;;;8.10;99.90;;;;;;5257288;28;20244;-45
2022/05/01 02:46:47;;;;;;;4.53;4.13;;;8.10;99.90;;;;;;5259678;28;20177;-46
2022/05/01 02:49:17;;;;;;;7.03;4.10;;;8.10;99.90;;;;;;5261773;28;20428;-46
2022/05/01 02:51:48;;;;;;;5.90;3.87;;;8.10;99.90;;;;;;5263792;28;20185;-46
2022/05/01 02:54:21;;;;;;;5.23;4.07;;;8.10;99.90;;;;;;5264416;28;20205;-50
2022/05/01 02:56:51;;;;;;;6.00;3.70;;;8.10;99.90;;;;;;5264656;28;20430;-45
2022/05/01 02:59:22;;;;;;;6.90;4.40;;;8.00;99.90;;;;;;5264234;28;20427;-46
2022/05/01 03:01:54;;;;;;;6.87;3.60;;;8.00;99.90;;;;;;5265086;28;20571;-50
2022/05/01 03:04:25;;;;;;;4.30;3.47;;;8.00;99.90;;;;;;5259045;28;20212;-47
2022/05/01 03:06:56;;;;;;;7.03;4.00;;;8.00;99.90;;;;;;5266345;28;20923;-45
2022/05/01 03:09:27;;;;;;;3.80;3.60;;;8.00;99.90;;;;;;5262914;28;20220;-44
2022/05/01 03:11:57;;;;;;;4.07;3.60;;;7.90;99.90;;;;;;5266386;28;20981;-47
2022/05/01 03:14:28;;;;;;;4.57;4.17;;;8.00;99.90;;;;;;5261279;28;20296;-47
2022/05/01 03:16:58;;;;;;;6.80;3.60;;;8.00;99.90;;;;;;5255316;22;20233;-52
2022/05/01 03:22:18;;;;;;;3.60;3.30;;;7.90;99.90;;;;;;5243517;28;20264;-55
2022/05/01 03:24:48;;;;;;;4.30;3.80;;;7.90;99.90;;;;;;5245336;28;20433;-54
2022/05/01 03:27:19;;;;;;;4.27;3.97;;;7.90;99.90;;;;;;5255802;28;20223;-53
2022/05/01 03:32:38;;;;;;;4.17;3.87;;;7.90;99.90;;;;;;5219705;28;20631;-51
2022/05/01 03:35:09;;;;;;;3.47;3.17;;;7.80;99.90;;;;;;5213058;28;20442;-52
2022/05/01 03:37:40;;;;;;;6.40;4.80;;;7.80;99.90;;;;;;5211617;28;20720;-52
2022/05/01 03:40:14;;;;;;;4.00;3.80;;;7.80;99.90;;;;;;5221330;28;20596;-51
2022/05/01 03:42:45;;;;;;;4.00;3.23;;;7.80;99.90;;;;;;5234945;28;20523;-52
2022/05/01 03:45:15;;;;;;;4.63;3.37;;;7.80;99.90;;;;;;5223807;28;20837;-53
2022/05/01 03:47:46;;;;;;;3.97;3.67;;;7.90;99.90;;;;;;5220597;28;20249;-51
2022/05/01 03:50:16;;;;;;;4.07;3.47;;;7.90;99.90;;;;;;5224548;28;20680;-51
2022/05/01 03:52:47;;;;;;;9.13;3.70;;;7.90;99.90;;;;;;5217909;28;20205;-51
2022/05/01 03:55:18;;;;;;;4.00;3.70;;;7.90;99.90;;;;;;5224007;28;20214;-53
2022/05/01 03:57:48;;;;;;;10.53;4.27;;;7.90;99.90;;;;;;5220154;28;20230;-52
2022/05/01 04:00:19;;;;;;;8.70;4.13;;;7.90;99.90;;;;;;5212261;28;20524;-53
2022/05/01 04:02:52;;;;;;;7.40;4.90;;;7.90;99.90;;;;;;5221050;28;20294;-52
2022/05/01 04:05:22;;;;;;;4.30;3.60;;;8.00;99.90;;;;;;5221161;28;20789;-52
2022/05/01 04:07:53;;;;;;;5.73;4.10;;;7.90;99.90;;;;;;5221905;28;20460;-50
2022/05/01 04:10:27;;;;;;;20.57;5.00;;;7.90;99.90;;;;;;5213094;28;20211;-56
2022/05/01 04:12:57;;;;;;;3.93;3.63;;;8.00;99.90;;;;;;5221631;28;20630;-55
2022/05/01 04:15:28;;;;;;;3.77;3.50;;;8.00;99.90;;;;;;5218354;28;20448;-52
2022/05/01 04:18:02;;;;;;;4.47;4.03;;;8.00;99.90;;;;;;5215579;28;20772;-52
2022/05/01 04:20:37;;;;;;;6.33;4.60;;;8.00;99.90;;;;;;5212167;28;20187;-60
2022/05/01 04:23:08;;;;;;;4.57;4.20;;;8.10;99.90;;;;;;5220836;28;20460;-51
2022/05/01 04:25:39;;;;;;;9.63;4.30;;;8.10;99.90;;;;;;5240195;28;20973;-57
2022/05/01 04:28:11;;;;;;;6.30;4.20;;;8.10;99.90;;;;;;5225558;28;20507;-57
2022/05/01 04:30:42;;;;;;;5.57;4.50;;;8.10;99.90;;;;;;5220351;28;20529;-50
2022/05/01 04:33:14;;;;;;;7.27;4.23;;;8.10;99.90;;;;;;5225803;28;20528;-51
2022/05/01 04:35:48;;;;;;;10.60;4.40;;;8.20;99.90;;;;;;5220519;28;20187;-51
2022/05/01 04:38:24;;;;;;;4.87;4.40;;;8.20;99.90;;;;;;5222087;28;20866;-55
2022/05/01 04:40:58;;;;;;;7.20;4.00;;;8.30;99.90;;;;;;5224053;28;20445;-51
2022/05/01 04:43:30;;;;;;;7.03;4.40;;;8.50;99.90;;;;;;5226073;28;20921;-57
2022/05/01 04:46:00;;;;;;;8.73;3.77;;;8.60;99.90;;;;;;5225957;28;20433;-51
2022/05/01 04:48:31;;;;;;;4.77;3.30;;;8.80;99.90;;;;;;5221056;28;20440;-51
2022/05/01 04:51:05;;;;;;;9.57;3.90;;;8.90;99.90;;;;;;5220312;28;20241;-51
2022/05/01 04:53:35;;;;;;;8.60;4.43;;;9.00;99.90;;;;;;5222079;28;20257;-51
2022/05/01 04:58:55;;;;;;;3.80;3.60;;;9.50;99.90;;;;;;5220465;28;20703;-51
2022/05/01 05:01:26;;;;;;;4.23;3.93;;;9.60;99.90;;;;;;5218976;28;20437;-57
2022/05/01 05:03:58;;;;;;;5.33;4.03;;;9.50;99.90;;;;;;5217379;28;20276;-53
2022/05/01 05:06:30;;;;;;;3.47;3.27;;;9.70;99.90;;;;;;5222941;28;20470;-56
2022/05/01 05:11:50;;;;;;;4.03;3.50;;;10.30;99.90;;;;;;5219942;28;20417;-52
2022/05/01 05:14:20;;;;;;;4.23;3.47;;;10.90;99.90;;;;;;5221110;28;20437;-52
2022/05/01 05:16:51;;;;;;;4.63;3.73;;;11.40;99.90;;;;;;5222288;28;20230;-52
2022/05/01 05:19:22;;;;;;;7.30;3.00;;;12.50;99.90;;;;;;5224145;28;20175;-53
2022/05/01 05:21:52;;;;;;;5.90;3.70;;;13.80;93.80;;;;;;5219916;28;20274;-52
2022/05/01 05:24:23;;;;;;;3.70;3.40;;;15.20;78.80;;;;;;5221599;28;20171;-52
2022/05/01 05:26:53;;;;;;;3.33;2.77;;;16.30;63.20;;;;;;5239047;28;20245;-51
2022/05/01 05:29:24;;;;;;;4.27;3.20;;;17.20;57.20;;;;;;5223137;28;20649;-52
2022/05/01 05:31:55;;;;;;;3.13;2.77;;;18.00;53.30;;;;;;5223455;28;20187;-52
2022/05/01 05:34:26;;;;;;;3.30;2.60;;;19.20;50.60;;;;;;5216755;28;20190;-55
2022/05/01 05:36:57;;;;;;;3.07;2.87;;;19.60;46.10;;;;;;5218299;28;20286;-53
2022/05/01 05:39:27;;;;;;;3.87;3.00;;;20.30;45.00;;;;;;5220080;28;20815;-53
2022/05/01 05:41:59;;;;;;;8.67;3.40;;;20.90;43.00;;;;;;5226264;28;20222;-53
2022/05/01 05:44:29;;;;;;;4.70;2.73;;;21.50;40.80;;;;;;5216470;28;20499;-52
2022/05/01 05:47:00;;;;;;;2.23;2.13;;;21.90;39.50;;;;;;5214683;28;20211;-53
2022/05/01 05:49:34;;;;;;;4.60;2.93;;;22.00;38.70;;;;;;5218905;28;20180;-53
2022/05/01 05:52:05;;;;;;;5.37;2.80;;;21.70;38.10;;;;;;5223501;28;20528;-50
2022/05/01 05:54:35;;;;;;;8.40;3.20;;;21.00;39.00;;;;;;5223631;28;20494;-53
2022/05/01 05:57:06;;;;;;;9.73;2.70;;;21.70;39.30;;;;;;5219981;28;20570;-55
2022/05/01 05:59:36;;;;;;;4.17;3.00;;;22.80;37.00;;;;;;5216174;28;20247;-53
2022/05/01 06:02:07;;;;;;;3.10;2.10;;;23.90;34.90;;;;;;5217516;28;20215;-52
2022/05/01 06:04:38;;;;;;;5.10;2.60;;;24.30;33.70;;;;;;5219844;28;20190;-53
2022/05/01 06:07:08;;;;;;;3.63;3.33;;;23.80;33.30;;;;;;5225095;28;20195;-52
2022/05/01 06:09:39;;;;;;;2.73;2.00;;;23.00;34.90;;;;;;5221557;28;20198;-55
2022/05/01 06:12:09;;;;;;;4.93;2.90;;;23.40;34.80;;;;;;5221569;28;20186;-56
2022/05/01 06:14:40;;;;;;;3.80;2.80;;;23.80;33.70;;;;;;5244582;28;20186;-53
2022/05/01 06:17:11;;;;;;;4.90;2.43;;;24.30;33.00;;;;;;5228627;28;20365;-52
2022/05/01 06:19:41;;;;;;;2.40;2.07;;;25.10;32.70;;;;;;5225514;28;20249;-53
2022/05/01 06:22:12;;;;;;;2.73;2.00;;;25.90;31.10;;;;;;5220756;28;20461;-53
2022/05/01 06:24:42;;;;;;;2.37;2.27;;;25.60;30.90;;;;;;5225212;28;20175;-53
2022/05/01 06:27:13;;;;;;;3.47;2.60;;;25.80;31.30;;;;;;5220788;28;20712;-52
2022/05/01 06:29:44;;;;;;;2.67;2.47;;;26.30;30.40;;;;;;5214536;28;20267;-52
2022/05/01 06:32:19;;;;;;;3.40;2.80;;;26.60;29.80;;;;;;5223712;28;20265;-53
2022/05/01 06:34:51;;;;;;;3.20;2.30;;;26.40;29.80;;;;;;5216691;28;20441;-52
2022/05/01 06:37:21;;;;;;;7.97;2.60;;;26.20;30.00;;;;;;5222895;28;20786;-52
2022/05/01 06:39:52;;;;;;;3.47;2.60;;;26.40;30.10;;;;;;5223782;28;20429;-54
2022/05/01 06:42:22;;;;;;;7.50;3.27;;;26.80;30.20;;;;;;5214669;28;20211;-52
2022/05/01 06:44:53;;;;;;;5.50;2.40;;;26.30;30.00;;;;;;5226545;28;20530;-52
2022/05/01 06:47:23;;;;;;;7.83;2.80;;;26.10;30.30;;;;;;5223543;28;20205;-53
2022/05/01 06:49:54;;;;;;;10.90;2.63;;;25.90;30.30;;;;;;5224819;28;20187;-58
2022/05/01 06:52:25;;;;;;;2.60;2.40;;;25.50;30.80;;;;;;5238857;28;20187;-52
2022/05/01 06:54:56;;;;;;;2.73;2.37;;;24.90;31.30;;;;;;5220685;28;20194;-52
2022/05/01 06:57:26;;;;;;;4.70;2.60;;;24.60;32.40;;;;;;5225777;28;20256;-52
2022/05/01 06:59:57;;;;;;;3.60;2.50;;;24.80;32.10;;;;;;5217705;28;20461;-53
2022/05/01 07:02:28;;;;;;;7.13;2.40;;;25.00;32.10;;;;;;5219515;28;20599;-53
2022/05/01 07:04:58;;;;;;;2.57;2.00;;;25.90;31.40;;;;;;5222143;28;20194;-52
2022/05/01 07:07:29;;;;;;;5.27;3.03;;;27.00;30.20;;;;;;5226062;28;20198;-53
2022/05/01 07:09:59;;;;;;;5.73;2.90;;;27.50;28.90;;;;;;5223133;28;20183;-51
2022/05/01 07:12:30;;;;;;;4.13;2.43;;;27.30;28.70;;;;;;5213694;28;20555;-52
2022/05/01 07:15:01;;;;;;;2.60;2.40;;;26.60;29.40;;;;;;5220304;28;20197;-54
2022/05/01 07:17:32;;;;;;;3.50;3.20;;;26.60;29.40;;;;;;5217924;28;20220;-52
2022/05/01 07:20:03;;;;;;;4.27;2.40;;;26.30;29.70;;;;;;5222123;28;20817;-52
2022/05/01 07:22:33;;;;;;;4.73;3.10;;;26.60;29.50;;;;;;5216415;28;20464;-55
2022/05/01 07:25:04;;;;;;;3.13;2.80;;;26.90;29.30;;;;;;5223504;28;20442;-55
2022/05/01 07:27:35;;;;;;;7.13;3.23;;;26.60;28.90;;;;;;5219976;28;20211;-53
2022/05/01 07:30:06;;;;;;;7.80;2.90;;;25.90;29.80;;;;;;5218133;28;20265;-53
2022/05/01 07:32:36;;;;;;;4.13;3.20;;;25.50;30.20;;;;;;5239395;28;20194;-53
2022/05/01 07:35:07;;;;;;;3.00;2.80;;;25.20;30.10;;;;;;5223290;28;20957;-52
2022/05/01 07:37:38;;;;;;;11.20;3.37;;;25.70;30.10;;;;;;5225021;28;20214;-53
2022/05/01 07:40:09;;;;;;;2.87;2.53;;;26.20;29.50;;;;;;5224046;28;20802;-52
2022/05/01 07:42:40;;;;;;;3.13;2.80;;;26.10;29.40;;;;;;5238010;28;20261;-52
2022/05/01 07:45:11;;;;;;;4.73;3.00;;;24.90;30.40;;;;;;5228374;28;20445;-51
2022/05/01 07:47:41;;;;;;;3.33;3.10;;;22.80;33.00;;;;;;5227205;28;20206;-52
2022/05/01 07:50:13;;;;;;;5.40;2.57;;;21.40;35.40;;;;;;5246141;28;20192;-53
2022/05/01 07:52:44;;;;;;;7.90;2.60;;;20.40;37.00;;;;;;5227901;28;20576;-52
2022/05/01 07:55:14;;;;;;;4.67;2.60;;;20.00;37.80;;;;;;5240002;28;20430;-53
2022/05/01 07:57:45;;;;;;;5.20;3.27;;;19.60;37.70;;;;;;5220573;28;20203;-52
2022/05/01 08:00:16;;;;;;;6.27;2.93;;;19.90;37.70;;;;;;5223491;28;20269;-52
2022/05/01 08:05:36;;;;;;;6.73;2.43;;;19.80;37.80;;;;;;5218920;28;20194;-52
2022/05/01 08:08:07;;;;;;;7.20;2.97;;;20.30;37.50;;;;;;5222512;28;20782;-52
2022/05/01 08:10:37;;;;;;;6.23;2.60;;;20.70;36.80;;;;;;5220913;28;20193;-53
2022/05/01 08:13:08;;;;;;;4.83;2.37;;;20.50;36.70;;;;;;5223825;28;20554;-52
2022/05/01 08:15:38;;;;;;;8.33;2.97;;;20.80;36.60;;;;;;5212409;28;20187;-57
2022/05/01 08:21:10;;;;;;;2.60;2.33;;;19.60;38.00;;;;;;5217077;28;20697;-52
2022/05/01 08:23:41;;;;;;;5.10;2.80;;;19.10;39.10;;;;;;5223387;28;20461;-52
2022/05/01 08:26:13;;;;;;;7.13;2.93;;;19.20;38.80;;;;;;5223100;28;20457;-53
2022/05/01 08:28:45;;;;;;;12.83;3.50;;;19.50;39.00;;;;;;5224053;28;20533;-51
2022/05/01 08:31:16;;;;;;;6.07;3.47;;;19.80;38.20;;;;;;5217155;28;20430;-52
2022/05/01 08:33:46;;;;;;;3.53;3.23;;;20.10;38.20;;;;;;5224840;28;20773;-53
2022/05/01 08:36:17;;;;;;;3.30;2.60;;;20.30;37.40;;;;;;5224476;28;20219;-53
2022/05/01 08:38:48;;;;;;;4.33;2.10;;;19.70;38.10;;;;;;5219768;28;20187;-53
2022/05/01 08:41:18;;;;;;;13.77;3.30;;;19.40;38.80;;;;;;5239317;28;20730;-52
2022/05/01 08:43:51;;;;;;;12.40;2.53;;;19.20;39.10;;;;;;5215153;28;20219;-55
2022/05/01 08:46:45;;;;;;;8.13;3.10;;;19.00;39.40;;;;;;5213909;28;20218;-53
2022/05/01 08:49:17;;;;;;;2.70;2.50;;;18.40;39.80;;;;;;5220549;28;20437;-53
2022/05/01 08:51:50;;;;;;;10.43;3.87;;;17.70;41.40;;;;;;5221092;28;20538;-53
2022/05/01 08:54:23;;;;;;;2.93;2.70;;;17.40;41.90;;;;;;5228357;28;20796;-55
2022/05/01 08:56:54;;;;;;;3.00;2.80;;;17.10;42.50;;;;;;5234345;28;20468;-53
2022/05/01 08:59:25;;;;;;;3.30;2.23;;;17.00;44.00;;;;;;5227834;28;20445;-52
2022/05/01 09:01:56;;;;;;;2.83;2.03;;;17.00;43.10;;;;;;5231126;28;20437;-59
2022/05/01 09:04:28;;;;;;;4.60;2.37;;;17.00;42.90;;;;;;5216117;28;20956;-53
2022/05/01 09:07:01;;;;;;;5.20;2.50;;;17.10;42.70;;;;;;5217066;28;20206;-53
2022/05/01 09:09:31;;;;;;;3.93;2.27;;;17.10;42.20;;;;;;5228186;28;20455;-52
2022/05/01 09:14:51;;;;;;;2.80;2.17;;;16.90;42.70;;;;;;5227101;28;20182;-52
2022/05/01 09:17:23;;;;;;;6.13;2.67;;;16.70;43.00;;;;;;5236881;22;20505;-48
2022/05/01 09:20:05;;;;;;;2.53;1.83;;;16.50;43.20;;;;;;5208582;28;20183;-48
2022/05/01 09:22:53;;;;;;;2.87;2.03;;;16.60;43.60;;;;;;5218009;28;20465;-50
2022/05/01 09:25:27;;;;;;;3.03;2.70;;;16.70;43.70;;;;;;5195377;28;20781;-48
2022/05/01 09:28:01;;;;;;;3.13;2.83;;;16.70;43.70;;;;;;5216176;28;20937;-51
2022/05/01 09:30:38;;;;;;;5.27;2.33;;;16.80;43.40;;;;;;5221993;28;20440;-48
2022/05/01 09:33:18;;;;;;;2.47;1.77;;;16.80;43.00;;;;;;5216567;28;20842;-51
2022/05/01 09:35:49;;;;;;;3.07;2.87;;;16.80;43.30;;;;;;5201809;28;20811;-49
2022/05/01 09:38:24;;;;;;;2.57;2.37;;;16.90;43.00;;;;;;5182528;28;20523;-49
2022/05/01 09:41:00;;;;;;;2.87;2.63;;;17.10;42.70;;;;;;5202266;28;20190;-52
2022/05/01 09:43:43;;;;;;;3.17;2.97;;;17.30;42.50;;;;;;5218827;28;20464;-51
2022/05/01 09:46:21;;;;;;;3.97;1.77;;;17.60;42.40;;;;;;5216354;28;20425;-52
2022/05/01 09:49:01;;;;;;;2.07;1.97;;;17.50;41.00;;;;;;5216435;28;20433;-52
2022/05/01 09:51:38;;;;;;;16.30;2.40;;;17.60;40.60;;;;;;5215207;28;20441;-51
2022/05/01 09:54:17;;;;;;;3.50;2.47;;;17.40;40.70;;;;;;5215842;28;20429;-54
2022/05/01 09:56:57;;;;;;;2.37;2.20;;;17.50;40.40;;;;;;5222767;28;20471;-52
2022/05/01 09:59:29;;;;;;;4.03;1.97;;;17.70;40.20;;;;;;5217472;28;20441;-52
2022/05/01 10:02:05;;;;;;;2.97;1.90;;;17.70;39.20;;;;;;5204037;28;20445;-52
2022/05/01 10:04:37;;;;;;;1.70;1.60;;;17.70;39.60;;;;;;5216160;28;20795;-52
2022/05/01 10:07:08;;;;;;;10.57;6.03;;;17.30;38.80;;;;;;5198445;28;20460;-49
2022/05/01 10:09:40;;;;;;;1.90;1.70;;;17.20;39.20;;;;;;5215035;28;20444;-52
2022/05/01 10:12:11;;;;;;;7.23;1.70;;;17.00;39.10;;;;;;5197016;28;20207;-51
2022/05/01 10:14:43;;;;;;;7.10;1.47;;;16.80;39.50;;;;;;5216048;28;20528;-52
2022/05/01 10:17:14;;;;;;;3.27;1.47;;;16.80;39.70;;;;;;5179629;28;21029;-49
2022/05/01 10:19:46;;;;;;;9.27;2.50;;;16.80;40.00;;;;;;5218168;28;20544;-52
2022/05/01 10:22:18;;;;;;;3.40;1.83;;;16.70;40.00;;;;;;5216882;28;20214;-52
2022/05/01 10:24:49;;;;;;;1.60;1.60;;;16.80;40.30;;;;;;5220117;28;20433;-51
2022/05/01 10:27:46;;;;;;;2.60;1.43;;;16.70;40.30;;;;;;5204677;28;23714;-50
2022/05/01 10:33:34;;;;;;;1.43;1.43;;;16.50;40.70;;;;;;5221448;28;20794;-51
2022/05/01 10:36:41;;;;;;;2.30;2.20;;;16.50;40.80;;;;;;5215369;28;20441;-49
2022/05/01 10:39:17;;;;;;;1.60;1.50;;;16.40;41.00;;;;;;5179317;28;20437;-52
2022/05/01 10:41:48;;;;;;;5.83;2.00;;;16.30;41.10;;;;;;5220595;28;20515;-52
2022/05/01 10:44:45;;;;;;;2.40;2.20;;;16.20;41.40;;;;;;5217491;28;20559;-52
2022/05/01 10:47:18;;;;;;;2.37;1.93;;;16.20;41.60;;;;;;5196470;28;20632;-52
2022/05/01 10:49:49;;;;;;;1.93;1.87;;;16.20;41.50;;;;;;5220411;28;20922;-51
2022/05/01 10:52:21;;;;;;;1.93;1.80;;;16.20;41.10;;;;;;5219002;28;20443;-51
2022/05/01 10:54:59;;;;;;;3.80;1.97;;;16.30;41.10;;;;;;5201693;28;20226;-53
2022/05/01 10:57:30;;;;;;;3.23;1.53;;;16.30;41.10;;;;;;5218715;28;20457;-52
2022/05/01 11:00:05;;;;;;;3.77;1.57;;;16.30;40.80;;;;;;5213611;28;20473;-49
2022/05/01 11:02:47;;;;;;;2.77;1.97;;;16.30;41.10;;;;;;5213426;28;20568;-51
2022/05/01 11:05:40;;;;;;;2.37;2.27;;;16.30;40.90;;;;;;5219833;28;20425;-50
2022/05/01 11:08:29;;;;;;;1.77;1.60;;;16.20;41.10;;;;;;5218225;28;20457;-52
2022/05/01 11:11:01;;;;;;;1.70;1.60;;;16.30;41.10;;;;;;5214965;28;20425;-53
2022/05/01 11:13:33;;;;;;;1.97;1.87;;;16.50;41.30;;;;;;5217894;28;20444;-51
2022/05/01 11:16:06;;;;;;;3.33;1.73;;;16.50;41.10;;;;;;5221504;28;20452;-53
2022/05/01 11:18:54;;;;;;;9.67;1.80;;;16.50;40.80;;;;;;5205185;28;20460;-51
2022/05/01 11:21:24;;;;;;;1.67;1.30;;;16.50;40.80;;;;;;5220166;28;20449;-52
2022/05/01 11:24:01;;;;;;;1.60;1.57;;;16.50;41.00;;;;;;5218335;28;20468;-52
2022/05/01 11:26:33;;;;;;;1.77;1.67;;;16.70;41.20;;;;;;5223520;28;20199;-50
2022/05/01 11:29:13;;;;;;;4.17;2.47;;;16.80;40.60;;;;;;5222057;28;20440;-53
2022/05/01 11:31:46;;;;;;;1.80;1.80;;;16.80;40.60;;;;;;5203323;28;20497;-52
2022/05/01 11:34:16;;;;;;;2.70;2.00;;;16.70;40.50;;;;;;5219633;28;20441;-52
2022/05/01 11:36:53;;;;;;;5.30;2.20;;;16.70;40.40;;;;;;5221400;28;20842;-51
2022/05/01 11:39:46;;;;;;;2.27;2.07;;;16.70;40.40;;;;;;5223320;28;20197;-54
2022/05/01 11:42:25;;;;;;;4.23;2.20;;;16.70;40.30;;;;;;5218835;28;21030;-50
2022/05/01 11:44:58;;;;;;;2.30;2.20;;;16.70;40.10;;;;;;5209091;28;20429;-53
2022/05/01 11:47:31;;;;;;;2.77;2.67;;;16.60;40.20;;;;;;5206846;28;20445;-53
2022/05/01 11:50:03;;;;;;;2.70;2.50;;;16.50;40.00;;;;;;5205851;28;20532;-51
2022/05/01 11:52:37;;;;;;;2.00;1.90;;;16.50;40.10;;;;;;5203060;28;21004;-54
2022/05/01 11:55:08;;;;;;;2.00;1.40;;;16.60;40.40;;;;;;5222910;28;20449;-54
2022/05/01 12:03:25;;;;;;;2.50;2.40;;;16.30;40.10;;;;;;5227578;28;20527;-51
2022/05/01 12:05:56;;;;;;;3.07;1.97;;;16.20;40.50;;;;;;5204569;28;20442;-52
2022/05/01 12:08:26;;;;;;;3.40;2.23;;;16.20;40.90;;;;;;5219811;28;20454;-50
2022/05/01 12:10:58;;;;;;;4.23;2.20;;;16.30;40.90;;;;;;5196096;28;20437;-52
2022/05/01 12:13:28;;;;;;;2.43;2.20;;;16.30;40.70;;;;;;5212972;28;20536;-53
2022/05/01 12:15:59;;;;;;;3.90;2.20;;;16.40;40.80;;;;;;5216100;28;20446;-53
2022/05/01 12:18:30;;;;;;;2.73;2.20;;;16.60;40.50;;;;;;5198728;28;20207;-52
2022/05/01 12:21:00;;;;;;;2.30;2.10;;;16.60;40.20;;;;;;5218445;28;20222;-49
2022/05/01 12:23:31;;;;;;;4.13;1.87;;;16.70;40.50;;;;;;5216916;28;20569;-52
2022/05/01 12:26:02;;;;;;;2.93;2.13;;;16.80;40.60;;;;;;5221182;28;20670;-49
2022/05/01 12:28:33;;;;;;;3.13;2.23;;;16.90;40.40;;;;;;5226976;28;20265;-50
2022/05/01 12:31:06;;;;;;;2.97;2.20;;;16.90;39.20;;;;;;5223679;28;21190;-50
2022/05/01 12:33:37;;;;;;;7.10;2.60;;;16.90;39.20;;;;;;5217928;28;20553;-50
2022/05/01 12:36:07;;;;;;;7.10;1.87;;;16.80;39.80;;;;;;5223373;28;20444;-50
2022/05/01 12:38:38;;;;;;;2.27;2.00;;;16.90;40.40;;;;;;5223734;28;20659;-50
2022/05/01 12:44:08;;;;;;;2.00;1.90;;;16.80;40.30;;;;;;5218517;28;20205;-50
2022/05/01 12:46:53;;;;;;;1.87;1.70;;;16.70;40.40;;;;;;5228929;28;21061;-49
2022/05/01 12:49:28;;;;;;;6.70;2.23;;;16.60;40.50;;;;;;5204992;28;20445;-51
2022/05/01 12:51:58;;;;;;;2.97;1.90;;;16.50;40.70;;;;;;5204645;28;20441;-50
2022/05/01 12:54:29;;;;;;;1.87;1.87;;;16.50;40.90;;;;;;5203537;28;20436;-51
2022/05/01 12:56:59;;;;;;;1.70;1.60;;;16.50;41.00;;;;;;5204726;28;20207;-52
2022/05/01 12:59:31;;;;;;;2.33;1.90;;;16.50;41.50;;;;;;5220930;28;20191;-53
2022/05/01 13:02:02;;;;;;;1.10;1.10;;;16.50;41.20;;;;;;5208615;28;20179;-49
2022/05/01 13:04:32;;;;;;;1.67;1.57;;;16.40;41.00;;;;;;5224458;28;20445;-52
2022/05/01 13:07:03;;;;;;;2.80;1.43;;;16.20;41.20;;;;;;5218604;28;20225;-50
2022/05/01 13:09:49;;;;;;;1.80;1.57;;;16.20;41.60;;;;;;5218626;28;20179;-49
2022/05/01 13:12:31;;;;;;;2.97;1.50;;;16.20;41.90;;;;;;5198689;28;20275;-51
2022/05/01 13:15:04;;;;;;;3.13;1.83;;;16.10;41.70;;;;;;5217758;28;20437;-52
2022/05/01 13:17:36;;;;;;;1.50;1.50;;;16.10;41.10;;;;;;5210845;28;20460;-52
2022/05/01 13:20:06;;;;;;;1.33;1.23;;;16.00;41.10;;;;;;5213075;28;20426;-53
2022/05/01 13:22:38;;;;;;;1.67;1.57;;;16.00;41.00;;;;;;5212426;28;21018;-54
2022/05/01 13:25:12;;;;;;;1.67;1.57;;;16.10;40.80;;;;;;5214488;28;20174;-56
2022/05/01 13:27:42;;;;;;;1.50;1.40;;;16.00;40.60;;;;;;5219542;28;20468;-53
2022/05/01 13:30:13;;;;;;;2.60;1.50;;;16.00;40.80;;;;;;5202723;28;20437;-53
2022/05/01 13:32:44;;;;;;;1.60;1.50;;;15.90;40.90;;;;;;5210758;28;20198;-52
2022/05/01 13:35:15;;;;;;;2.60;1.73;;;15.90;41.20;;;;;;5219599;28;20195;-52
2022/05/01 13:37:45;;;;;;;2.60;1.70;;;15.80;41.40;;;;;;5213329;28;20226;-52
2022/05/01 13:45:54;;;;;;;2.87;1.10;;;16.10;41.10;;;;;;5214326;28;20514;-51
2022/05/01 13:48:25;;;;;;;5.63;1.53;;;16.30;41.20;;;;;;5221154;28;20517;-55
2022/05/01 13:50:56;;;;;;;7.13;1.93;;;16.40;41.00;;;;;;5213006;28;20183;-56
2022/05/01 13:53:26;;;;;;;1.73;1.63;;;16.50;40.50;;;;;;5204001;28;20620;-52
2022/05/01 13:55:57;;;;;;;2.23;2.10;;;16.70;40.10;;;;;;5184066;28;20426;-53
2022/05/01 13:58:28;;;;;;;1.90;1.53;;;16.80;39.80;;;;;;5195119;28;20683;-54
2022/05/01 14:01:00;;;;;;;1.43;1.33;;;16.80;39.80;;;;;;5220695;28;20435;-54
2022/05/01 14:03:30;;;;;;;3.30;2.03;;;16.90;39.70;;;;;;5204577;28;20578;-54